Stations météo

réclame
Mon MeteoGroup
Halmstad, Suède (2604): Température de l'air & dewpoint: 18.01.2020 01:00:00 - 24.01.2020 01:00:00 (CET)Halmstad, Suède (2604): Vitesse du vent: 18.01.2020 01:00:00 - 24.01.2020 01:00:00 (CET)Halmstad, Suède (2604): Direction du vent: 18.01.2020 01:00:00 - 24.01.2020 01:00:00 (CET)Halmstad, Suède (2604): visibility: 18.01.2020 01:00:00 - 24.01.2020 01:00:00 (CET)
Date & Time tt [°C] td [°C] ff [km/h] ff [knt] dd vv [km]
24.01.2020 01:00:00 6,0 5,0 24 13 W 10
24.01.2020 00:00:00 6,0 6,0 29 16 W 5
23.01.2020 23:00:00 6,0 6,0 31 17 W 1,9
23.01.2020 22:00:00 6,0 6,0 31 17 WSW 4,2
23.01.2020 21:00:00 6,0 6,0 29 16 W 3,4
23.01.2020 20:00:00 6,0 6,0 31 17 W 9
23.01.2020 19:00:00 6,0 6,0 31 17 WSW 10
23.01.2020 18:00:00 6,0 6,0 26 14 WSW 10
23.01.2020 17:00:00 6,0 6,0 24 13 W 8
23.01.2020 16:00:00 6,0 6,0 24 13 W 4,6
23.01.2020 15:00:00 6,0 6,0 28 15 W 1,2
23.01.2020 14:00:00 6,0 5,0 22 12 W 2,0
23.01.2020 13:00:00 5,0 5,0 21 11 WSW 1,3
23.01.2020 12:00:00 5,0 5,0 22 12 W 1,9
23.01.2020 11:00:00 5,0 4,0 21 11 W 4,0
23.01.2020 10:00:00 5,0 4,0 22 12 W 6
23.01.2020 09:00:00 5,0 3,0 18 10 W 10
23.01.2020 08:00:00 4,0 4,0 18 10 W 10
23.01.2020 07:00:00 3,0 3,0 16 9 W 8
23.01.2020 06:00:00 3,0 3,0 13 7 SW 6
23.01.2020 05:00:00 2,0 1,0 9 5 SSW 0,6
23.01.2020 04:00:00 2,0 1,0 9 5 SSE 0,1
23.01.2020 03:00:00 -3,0 -4,0 2 1 - 10
23.01.2020 02:00:00 -3,0 -4,0 5 3 NE 10
23.01.2020 01:00:00 -2,0 -4,0 5 3 E 10
23.01.2020 00:00:00 -3,0 -6,0 4 2 - 10
22.01.2020 23:00:00 -2,0 -5,0 4 2 N 10
22.01.2020 22:00:00 -2,0 -5,0 0 0 N 10
22.01.2020 21:00:00 0,0 -6,0 8 4 ENE 10
22.01.2020 20:00:00 0,0 -4,0 0 0 N 10
22.01.2020 19:00:00 1,0 -5,0 0 0 N 10
22.01.2020 18:00:00 2,0 -4,0 8 4 NW 10
22.01.2020 17:00:00 4,0 -4,0 8 4 NW 10
22.01.2020 16:00:00 6,0 -4,0 15 8 NNW 10
22.01.2020 15:00:00 7,0 -4,0 18 10 N 10
22.01.2020 14:00:00 8,0 0,0 21 11 N 10
22.01.2020 13:00:00 8,0 2,0 21 11 NW 10
22.01.2020 12:00:00 7,0 3,0 18 10 NNW 10
22.01.2020 11:00:00 6,0 4,0 18 10 NNW 10
22.01.2020 10:00:00 6,0 3,0 22 12 NW 10
22.01.2020 09:00:00 5,0 3,0 24 13 NW 10
22.01.2020 08:00:00 5,0 3,0 24 13 NW 10
22.01.2020 07:00:00 5,0 3,0 26 14 NW 10
22.01.2020 06:00:00 5,0 3,0 28 15 NW 10
22.01.2020 05:00:00 5,0 3,0 28 15 NW 10
22.01.2020 04:00:00 5,0 3,0 22 12 WNW 10
22.01.2020 03:00:00 5,0 3,0 24 13 WNW 10
22.01.2020 02:00:00 6,0 3,0 37 20 WNW 10
22.01.2020 01:00:00 6,0 3,0 34 18 WNW 10
22.01.2020 00:00:00 6,0 3,0 37 20 WNW 10
21.01.2020 23:00:00 6,0 3,0 31 17 W 10
21.01.2020 22:00:00 6,0 3,0 35 19 WNW 10
21.01.2020 21:00:00 6,0 4,0 31 17 WNW 10
21.01.2020 20:00:00 6,0 4,0 35 19 W 10
21.01.2020 19:00:00 6,0 4,0 31 17 W 10
21.01.2020 18:00:00 7,0 5,0 31 17 W 10
21.01.2020 17:00:00 7,0 6,0 26 14 W 10
21.01.2020 16:00:00 7,0 6,0 31 17 W 10
21.01.2020 15:00:00 7,0 6,0 34 18 W 10
21.01.2020 14:00:00 7,0 6,0 35 19 W 8
21.01.2020 13:00:00 7,0 6,0 26 14 W 8
21.01.2020 12:00:00 7,0 5,0 31 17 W 10
21.01.2020 11:00:00 7,0 5,0 26 14 W 10
21.01.2020 10:00:00 6,0 5,0 29 16 W 10
21.01.2020 09:00:00 6,0 5,0 26 14 W 10
21.01.2020 08:00:00 6,0 5,0 28 15 W 10
21.01.2020 07:00:00 6,0 5,0 29 16 W 10
21.01.2020 06:00:00 6,0 4,0 31 17 W 10
21.01.2020 05:00:00 6,0 5,0 31 17 W 9
21.01.2020 04:00:00 6,0 5,0 34 18 W 9
21.01.2020 03:00:00 6,0 5,0 26 14 W 10
21.01.2020 02:00:00 6,0 4,0 24 13 W 10
21.01.2020 01:00:00 6,0 4,0 26 14 W 10
21.01.2020 00:00:00 6,0 5,0 24 13 W 10
20.01.2020 23:00:00 6,0 5,0 21 11 WSW 10
20.01.2020 22:00:00 6,0 4,0 18 10 WSW 10
20.01.2020 21:00:00 6,0 4,0 22 12 W 10
20.01.2020 20:00:00 6,0 5,0 18 10 W 10
20.01.2020 19:00:00 6,0 4,0 24 13 W 10
20.01.2020 18:00:00 6,0 4,0 21 11 W 10
20.01.2020 17:00:00 6,0 4,0 22 12 W 10
20.01.2020 16:00:00 6,0 4,0 22 12 WSW 10
20.01.2020 15:00:00 6,0 5,0 21 11 WSW 10
20.01.2020 14:00:00 6,0 5,0 21 11 WSW 10
20.01.2020 13:00:00 6,0 5,0 18 10 WSW 10
20.01.2020 12:00:00 6,0 5,0 21 11 SW 9
20.01.2020 11:00:00 6,0 5,0 22 12 WSW 10
20.01.2020 10:00:00 5,0 4,0 22 12 WSW 10
20.01.2020 09:00:00 5,0 4,0 18 10 WSW 9
20.01.2020 08:00:00 5,0 4,0 18 10 W 9
20.01.2020 07:00:00 5,0 5,0 21 11 W 10
20.01.2020 06:00:00 5,0 4,0 18 10 W 9
20.01.2020 05:00:00 4,0 4,0 16 9 WSW 10
20.01.2020 04:00:00 3,0 3,0 11 6 WSW 10
20.01.2020 03:00:00 3,0 2,0 9 5 WSW 10
20.01.2020 02:00:00 2,0 1,0 9 5 W 10
20.01.2020 01:00:00 2,0 0,0 5 3 W 10
20.01.2020 00:00:00 2,0 1,0 8 4 SW 10
19.01.2020 23:00:00 2,0 1,0 0 0 N 10
19.01.2020 22:00:00 2,0 1,0 4 2 WSW 10
19.01.2020 21:00:00 2,0 1,0 4 2 - 10
19.01.2020 20:00:00 3,0 1,0 8 4 NNW 10
19.01.2020 19:00:00 2,0 1,0 9 5 WNW 10
19.01.2020 18:00:00 3,0 2,0 5 3 NNW 10
19.01.2020 17:00:00 3,0 2,0 9 5 NW 10
19.01.2020 16:00:00 5,0 3,0 5 3 WNW 10
19.01.2020 15:00:00 6,0 4,0 11 6 WNW 10
19.01.2020 14:00:00 6,0 4,0 15 8 WNW 10
19.01.2020 13:00:00 7,0 4,0 15 8 NW 10
19.01.2020 12:00:00 6,0 4,0 11 6 W 10
19.01.2020 11:00:00 5,0 4,0 9 5 W 10
19.01.2020 10:00:00 3,0 2,0 5 3 WNW 9
19.01.2020 09:00:00 3,0 3,0 5 3 WSW 8
19.01.2020 08:00:00 3,0 3,0 8 4 WSW 10
19.01.2020 07:00:00 4,0 3,0 8 4 W 10
19.01.2020 06:00:00 4,0 3,0 8 4 WSW 10
19.01.2020 05:00:00 4,0 3,0 9 5 W 9
19.01.2020 04:00:00 5,0 4,0 15 8 W 10
19.01.2020 03:00:00 5,0 4,0 16 9 W 9
19.01.2020 02:00:00 5,0 3,0 22 12 WNW 10
19.01.2020 01:00:00 5,0 4,0 22 12 W 10
19.01.2020 00:00:00 6,0 4,0 26 14 W 10
18.01.2020 23:00:00 6,0 4,0 24 13 W 10
18.01.2020 22:00:00 6,0 4,0 28 15 W 10
18.01.2020 21:00:00 6,0 4,0 28 15 W 10
18.01.2020 20:00:00 6,0 4,0 31 17 WSW 10
18.01.2020 19:00:00 6,0 4,0 29 16 WSW 10
18.01.2020 18:00:00 6,0 4,0 34 18 WSW 10
18.01.2020 17:00:00 5,0 4,0 35 19 WSW 10
18.01.2020 16:00:00 6,0 4,0 31 17 SW 10
18.01.2020 15:00:00 6,0 4,0 34 18 WSW 10
18.01.2020 14:00:00 6,0 4,0 31 17 WSW 10
18.01.2020 13:00:00 6,0 4,0 35 19 SW 7
18.01.2020 12:00:00 6,0 3,0 35 19 SW 10
18.01.2020 11:00:00 6,0 4,0 39 21 SW 10
18.01.2020 10:00:00 6,0 4,0 37 20 SW 10
18.01.2020 09:00:00 6,0 4,0 37 20 SSW 10
18.01.2020 08:00:00 6,0 4,0 29 16 SSW 10
18.01.2020 07:00:00 6,0 5,0 26 14 SW 10
18.01.2020 06:00:00 7,0 6,0 31 17 SW 10
18.01.2020 05:00:00 7,0 6,0 28 15 SW 5
18.01.2020 04:00:00 6,0 6,0 22 12 SSW 1,9
18.01.2020 03:00:00 6,0 5,0 21 11 SSW 2,3
18.01.2020 02:00:00 6,0 5,0 16 9 S 2,8
18.01.2020 01:00:00 6,0 4,0 15 8 S 7

tt = Température de l'air
td = dewpoint
ff = Vitesse du vent
dd = Direction du vent
vv = visibility

stations d'obs. à proximité